Carrier, Oklahoma
Current Conditions -  °F | °C
As of 6:08 AM on Sunday 23 Nov 2014 (Local Time) from KEND Reporting Station
Broken Clouds Broken Clouds  
Wind Chill: 54°   Ceiling: 800
Heat Index: 54°   Visibility: 10mi
Dew Point: 52°   Wind: 16mph
Humidity: 94%   Direction: 170°S
Pressure: 29.45"   Gusts: 23mph
Location:  36.48°N, 98.02°W
Report Text: KEND 231208Z AUTO 17014G20KT 10SM BKN008 12/11 A2945 RMK AO2 BKN V OVC
Loading
Personal Weather Stations






























Interactive Weather Map New forecast layout! Learn more

10-Day Weather Forecast

Advertisements
Track Severe Weather on mobile